Berthierville, Canada
Current Conditions -  °F | °C
As of 6:23 AM on Friday 24 Oct 2014 (Local Time) from CYRQ Reporting Station
Overcast Overcast  
Wind Chill: 39°   Ceiling: 8500
Heat Index: 43°   Visibility: 9mi
Dew Point: 41°   Wind: 6mph
Humidity: 93%   Direction: 10°N
Pressure: 29.89"   Gusts: NA
Location:  46.08°N, 73.17°W
Report Text: CYRQ 241023Z AUTO 01005KT 9SM SCT045 OVC085 06/05 A2989 RMK SLP123
Loading
Personal Weather Stations






























Interactive Weather Map
Tropical Storm Tracking
New forecast layout! Learn more

10-Day Weather Forecast

Advertisements
Track Severe Weather on mobile